アナディリ の空港の天気 - METARとTAF

アナディリ・ウゴルヌイ空港 ( UHMA / DYR ) - ロシア アナディリ
飛行場実況気象(Metar)
観測時間06/26 00:00 MAGT (06/25 13:00 UTC)
風向・風速南東 6m/s 瞬間風速10m/s
視程10km以上
天気現象
全天の8割程度の雲 雲底高度 460m
気温7℃
湿度87%
気圧1009hPa
METARUHMA 251300Z 13006G10MPS 9999 BKN015 07/05 Q1009 RMK END R01/13008MPS MT OBSC QFE753/1004
過去の天気等 Google飛行場航空写真 Wunderground天気予報

過去48時間のMETAR

飛行場予報(TAF)
発表時間: 6/25 21:36 MAGT (6/25 10:36 UTC)
予報対象時間: 25日23時 MAGT ~ 26日23時 MAGT
風向・風速東南東 9m/s 瞬間風速 14m/s
視程10km以上
全天の4割程度の雲 雲底高度 300m
全天の4割程度の雲 雲底高度 760m
25日23時 MAGT ~ 26日23時 MAGT に一時的に
風向・風速南 6m/s
視程2000m
天気現象もや
全天の8割程度の雲 雲底高度 150m
全天の8割程度の積乱雲 雲底高度 520m
TAF UHMA 251036Z 2512/2612 12009G14MPS 9999 SCT010 SCT025
TEMPO 2512/2612 17006MPS 2000 BR BKN005 BKN017CB